createdAt,value
2022-10-14T04:00:57.438Z,5.80
2022-10-14T04:03:24.293Z,7.38
2022-10-14T04:05:51.080Z,6.10
2022-10-14T04:08:17.963Z,7.70
2022-10-14T04:10:44.898Z,7.55
2022-10-14T04:13:11.707Z,6.82
2022-10-14T04:15:38.735Z,6.28
2022-10-14T04:18:05.618Z,6.55
2022-10-14T04:20:32.416Z,5.93
2022-10-14T04:23:02.329Z,6.15
2022-10-14T04:25:29.138Z,6.53
2022-10-14T04:27:55.923Z,7.43
2022-10-14T04:30:22.781Z,5.88
2022-10-14T04:32:49.551Z,5.18
2022-10-14T04:35:16.374Z,4.85
2022-10-14T04:37:43.168Z,5.10
2022-10-14T04:40:10.472Z,5.95
2022-10-14T04:42:37.255Z,4.70
2022-10-14T04:45:05.282Z,5.07
2022-10-14T04:47:32.121Z,4.72
2022-10-14T04:49:58.914Z,4.03
2022-10-14T04:52:25.706Z,5.13
2022-10-14T04:54:52.526Z,4.97
2022-10-14T04:57:19.311Z,4.35
2022-10-14T04:59:46.074Z,5.25
2022-10-14T05:02:12.909Z,4.57
2022-10-14T05:04:39.770Z,4.00
2022-10-14T05:07:06.595Z,4.38
2022-10-14T05:09:33.827Z,4.43
2022-10-14T05:12:00.856Z,4.07
2022-10-14T05:14:27.718Z,4.35
2022-10-14T05:16:54.474Z,4.85
2022-10-14T05:19:21.239Z,4.72
2022-10-14T05:21:48.029Z,4.03
2022-10-14T05:24:14.890Z,3.50
2022-10-14T05:26:42.228Z,3.45
2022-10-14T05:29:11.431Z,4.63
2022-10-14T05:31:38.624Z,4.05
2022-10-14T05:34:05.424Z,4.47
2022-10-14T05:36:32.337Z,3.42
2022-10-14T05:38:59.190Z,3.65
2022-10-14T05:41:26.134Z,3.17
2022-10-14T05:43:52.994Z,4.05
2022-10-14T05:46:19.832Z,3.28
2022-10-14T05:48:46.586Z,3.20
2022-10-14T05:51:15.440Z,3.25
2022-10-14T05:53:43.591Z,3.22
2022-10-14T05:56:10.694Z,2.70
2022-10-14T05:58:37.498Z,3.67
2022-10-14T06:01:06.332Z,3.83
2022-10-14T06:03:33.458Z,3.40
2022-10-14T06:06:00.673Z,4.78
2022-10-14T06:08:27.921Z,3.17
2022-10-14T06:10:55.561Z,3.58
2022-10-14T06:13:22.799Z,3.42
2022-10-14T06:15:49.576Z,3.50
2022-10-14T06:18:16.322Z,4.07
2022-10-14T06:20:43.105Z,2.83
2022-10-14T06:23:09.859Z,3.65
2022-10-14T06:25:36.777Z,3.65
2022-10-14T06:28:04.889Z,3.13
2022-10-14T06:30:32.339Z,3.90
2022-10-14T06:32:59.122Z,3.22
2022-10-14T06:35:26.159Z,3.65
2022-10-14T06:37:53.030Z,2.88
2022-10-14T06:40:19.901Z,2.88
2022-10-14T06:42:46.980Z,2.88
2022-10-14T06:45:13.746Z,3.15
2022-10-14T06:47:40.555Z,3.90
2022-10-14T06:50:08.007Z,3.17
2022-10-14T06:52:34.787Z,2.30
2022-10-14T06:55:01.564Z,3.28
2022-10-14T06:57:28.361Z,2.83
2022-10-14T06:59:55.119Z,3.78
2022-10-14T07:02:22.066Z,3.00
2022-10-14T07:04:48.975Z,3.47
2022-10-14T07:07:15.752Z,3.30
2022-10-14T07:09:42.584Z,2.38
2022-10-14T07:12:09.424Z,2.35
2022-10-14T07:14:36.227Z,3.42
2022-10-14T07:17:03.421Z,3.20
2022-10-14T07:19:30.205Z,3.10
2022-10-14T07:21:56.955Z,3.15
2022-10-14T07:24:23.761Z,3.05
2022-10-14T07:26:50.607Z,2.97
2022-10-14T07:29:17.929Z,3.42
2022-10-14T07:31:45.311Z,3.95
2022-10-14T07:34:12.328Z,2.90
2022-10-14T07:36:39.543Z,4.03
2022-10-14T07:39:06.943Z,3.45
2022-10-14T07:41:34.594Z,2.78
2022-10-14T07:44:05.564Z,2.15
2022-10-14T07:46:35.215Z,3.42
2022-10-14T07:49:05.838Z,3.05
2022-10-14T07:51:33.680Z,2.88
2022-10-14T07:54:02.510Z,3.22
2022-10-14T07:56:29.402Z,2.85
2022-10-14T07:58:56.715Z,3.38
2022-10-14T08:01:24.775Z,3.25
2022-10-14T08:03:52.585Z,3.38
2022-10-14T08:06:19.868Z,3.10
2022-10-14T08:08:46.803Z,2.85
2022-10-14T08:11:17.640Z,2.20
2022-10-14T08:13:46.436Z,2.75
2022-10-14T08:16:23.739Z,2.97
2022-10-14T08:18:51.274Z,2.08
2022-10-14T08:21:19.378Z,2.75
2022-10-14T08:23:46.166Z,2.00
2022-10-14T08:26:22.748Z,2.75
2022-10-14T08:28:51.461Z,2.65
2022-10-14T08:31:18.960Z,2.17
2022-10-14T08:33:46.059Z,1.92
2022-10-14T08:36:13.593Z,1.63
2022-10-14T08:38:41.153Z,1.63
2022-10-14T08:41:14.680Z,2.42
2022-10-14T08:43:53.445Z,1.80
2022-10-14T08:46:39.563Z,1.40
2022-10-14T08:49:35.948Z,1.77
2022-10-14T08:52:13.079Z,1.73
2022-10-14T08:54:45.005Z,2.00
2022-10-14T08:57:21.060Z,1.60
2022-10-14T08:59:48.429Z,2.03
2022-10-14T09:02:51.567Z,1.40
2022-10-14T09:05:24.603Z,1.63
2022-10-14T09:07:55.285Z,1.52
2022-10-14T09:10:43.077Z,1.77
2022-10-14T09:13:34.517Z,1.45
2022-10-14T09:16:12.306Z,1.50
2022-10-14T09:18:55.947Z,1.98
2022-10-14T09:21:57.707Z,1.42
2022-10-14T09:24:35.790Z,1.58
2022-10-14T09:27:19.165Z,1.48
2022-10-14T09:29:59.307Z,1.30
2022-10-14T09:32:35.773Z,1.25
2022-10-14T09:35:03.651Z,1.25
2022-10-14T09:37:33.673Z,1.52
2022-10-14T09:40:15.475Z,0.93
2022-10-14T09:42:51.292Z,1.42
2022-10-14T09:45:24.714Z,1.52
2022-10-14T09:47:59.682Z,1.40
2022-10-14T09:50:38.101Z,1.50
2022-10-14T09:53:14.631Z,1.25
2022-10-14T09:55:49.367Z,1.30
2022-10-14T09:58:23.175Z,1.85
2022-10-14T10:00:57.469Z,1.08
2022-10-14T10:03:32.918Z,1.48
2022-10-14T10:06:05.045Z,1.40
2022-10-14T10:08:33.128Z,1.25
2022-10-14T10:11:10.523Z,1.20
2022-10-14T10:13:44.543Z,1.67
2022-10-14T10:16:19.807Z,1.60
2022-10-14T10:18:46.689Z,1.52
2022-10-14T10:21:24.935Z,1.52
2022-10-14T10:23:58.288Z,1.60
2022-10-14T10:26:27.088Z,1.92
2022-10-14T10:28:57.492Z,1.23
2022-10-14T10:31:42.469Z,1.00
2022-10-14T10:34:36.697Z,1.55
2022-10-14T10:37:20.222Z,0.85
2022-10-14T10:39:57.399Z,1.02
2022-10-14T10:43:02.096Z,1.25
2022-10-14T10:45:39.053Z,1.48
2022-10-14T10:48:34.234Z,1.23
2022-10-14T10:51:08.087Z,1.25
2022-10-14T10:54:10.348Z,1.10
2022-10-14T10:56:48.938Z,1.13
2022-10-14T10:59:21.716Z,1.25
2022-10-14T11:02:22.097Z,1.30
2022-10-14T11:05:10.756Z,2.25
2022-10-14T11:08:23.045Z,1.33
2022-10-14T11:11:28.104Z,1.13
2022-10-14T11:14:25.672Z,1.50
2022-10-14T11:17:21.613Z,1.65
2022-10-14T11:20:07.682Z,2.28
2022-10-14T11:22:53.683Z,2.75
2022-10-14T11:25:38.248Z,1.92
2022-10-14T11:28:24.376Z,2.00
2022-10-14T11:31:06.934Z,2.17
2022-10-14T11:33:45.046Z,1.83
2022-10-14T11:36:41.689Z,1.52
2022-10-14T11:39:19.226Z,1.60
2022-10-14T11:41:57.093Z,1.67
2022-10-14T11:47:20.690Z,1.92
2022-10-14T11:49:58.921Z,1.95
2022-10-14T11:52:35.422Z,1.55
2022-10-14T11:55:13.684Z,1.38
2022-10-14T11:57:47.090Z,1.65
2022-10-14T12:02:54.256Z,1.48
2022-10-14T12:05:39.925Z,2.15
2022-10-14T12:08:30.383Z,1.45
2022-10-14T12:11:09.160Z,1.05
2022-10-14T12:14:14.621Z,1.70
2022-10-14T12:16:44.541Z,1.55
2022-10-14T12:19:14.466Z,1.35
2022-10-14T12:22:19.797Z,1.55
2022-10-14T12:24:52.092Z,1.67
2022-10-14T12:27:21.350Z,1.80
2022-10-14T12:29:50.640Z,1.17
2022-10-14T12:32:20.797Z,1.50
2022-10-14T12:34:59.202Z,0.88
2022-10-14T12:37:32.715Z,1.42
2022-10-14T12:40:02.742Z,1.67
2022-10-14T12:42:57.786Z,1.65
2022-10-14T12:45:27.484Z,1.70
2022-10-14T12:48:06.321Z,1.65
2022-10-14T12:50:38.368Z,1.40
2022-10-14T12:53:19.680Z,1.80
2022-10-14T12:55:58.749Z,1.20
2022-10-14T12:58:29.386Z,1.08
2022-10-14T13:01:06.762Z,1.42
2022-10-14T13:03:42.499Z,1.58
2022-10-14T13:06:37.231Z,1.30
2022-10-14T13:09:12.867Z,1.55
2022-10-14T13:11:52.456Z,1.27
2022-10-14T13:14:32.074Z,1.42
2022-10-14T13:17:00.605Z,1.35
2022-10-14T13:19:33.068Z,0.93
2022-10-14T13:24:38.195Z,1.30
2022-10-14T13:27:31.475Z,1.60
2022-10-14T13:30:10.834Z,1.60
2022-10-14T13:32:40.653Z,1.30
2022-10-14T13:35:44.124Z,1.30
2022-10-14T13:38:17.418Z,1.40
2022-10-14T13:40:48.288Z,1.23
2022-10-14T13:43:41.174Z,1.35
2022-10-14T13:48:58.589Z,1.20
2022-10-14T13:51:36.533Z,1.30
2022-10-14T13:54:22.981Z,1.10
2022-10-14T13:57:43.036Z,1.38
2022-10-14T14:02:51.480Z,1.05
2022-10-14T14:05:22.473Z,0.70
2022-10-14T14:10:51.505Z,1.20
2022-10-14T14:13:28.129Z,1.05
2022-10-14T14:15:55.807Z,1.30
2022-10-14T14:18:49.281Z,1.23
2022-10-14T14:21:25.881Z,1.33
2022-10-14T14:23:55.515Z,1.55
2022-10-14T14:26:29.322Z,0.80
2022-10-14T14:28:56.220Z,1.25
2022-10-14T14:31:33.731Z,1.02
2022-10-14T14:34:18.087Z,0.93
2022-10-14T14:36:55.753Z,1.13
2022-10-14T14:39:32.303Z,1.00
2022-10-14T14:42:00.718Z,0.65
2022-10-14T14:44:31.518Z,1.13
2022-10-14T14:47:01.020Z,1.20
2022-10-14T14:49:31.810Z,1.17
2022-10-14T14:51:59.371Z,1.10
2022-10-14T14:54:27.342Z,0.75
2022-10-14T14:57:02.265Z,0.95
2022-10-14T14:59:42.215Z,1.50
2022-10-14T15:02:20.914Z,1.15
2022-10-14T15:04:58.853Z,1.13
2022-10-14T15:07:27.116Z,1.17
2022-10-14T15:10:00.474Z,1.17
2022-10-14T15:12:39.725Z,1.23
2022-10-14T15:15:24.018Z,1.23
2022-10-14T15:18:26.195Z,1.52
2022-10-14T15:21:03.685Z,1.07
2022-10-14T15:23:48.845Z,0.93
2022-10-14T15:26:33.686Z,1.08
2022-10-14T15:29:17.083Z,1.63
2022-10-14T15:32:03.758Z,1.67
2022-10-14T15:34:30.569Z,1.88
2022-10-14T15:36:57.376Z,1.00
2022-10-14T15:39:24.208Z,0.98
2022-10-14T15:41:51.262Z,1.20
2022-10-14T15:44:18.032Z,1.55
2022-10-14T15:47:04.860Z,1.10
2022-10-14T15:49:39.625Z,1.45
2022-10-14T15:52:07.070Z,1.30
2022-10-14T15:54:33.991Z,1.30
2022-10-14T15:57:00.832Z,1.20
2022-10-14T15:59:28.262Z,2.13
2022-10-14T16:01:55.148Z,1.40
2022-10-14T16:04:24.877Z,1.55
2022-10-14T16:06:54.853Z,1.38
2022-10-14T16:09:22.976Z,1.88
2022-10-14T16:11:57.125Z,1.40
2022-10-14T16:14:27.750Z,1.23
2022-10-14T16:16:55.036Z,1.70
2022-10-14T16:19:22.084Z,1.40
2022-10-14T16:21:50.342Z,1.85
2022-10-14T16:24:20.496Z,1.17
2022-10-14T16:26:49.263Z,1.50
2022-10-14T16:29:18.148Z,1.40
2022-10-14T16:31:50.005Z,1.60
2022-10-14T16:34:22.800Z,1.17
2022-10-14T16:36:50.890Z,1.98
2022-10-14T16:39:19.861Z,1.70
2022-10-14T16:41:46.725Z,1.55
2022-10-14T16:44:25.990Z,2.03
2022-10-14T16:47:12.774Z,1.40
2022-10-14T16:49:40.430Z,1.23
2022-10-14T16:52:08.422Z,1.60
2022-10-14T16:54:35.306Z,1.30
2022-10-14T16:57:02.763Z,1.98
2022-10-14T16:59:30.615Z,1.73
2022-10-14T17:01:58.095Z,1.95
2022-10-14T17:04:25.591Z,1.70
2022-10-14T17:06:52.406Z,1.85
2022-10-14T17:09:19.732Z,1.80
2022-10-14T17:11:47.395Z,1.83
2022-10-14T17:14:18.101Z,1.50
2022-10-14T17:16:48.200Z,1.20
2022-10-14T17:19:15.102Z,1.75
2022-10-14T17:21:41.881Z,2.38
2022-10-14T17:24:08.741Z,1.58
2022-10-14T17:26:35.566Z,1.70
2022-10-14T17:29:02.640Z,1.42
2022-10-14T17:31:30.402Z,1.55
2022-10-14T17:33:59.419Z,1.75
2022-10-14T17:36:30.739Z,2.35
2022-10-14T17:38:59.147Z,1.20
2022-10-14T17:41:28.250Z,1.02
2022-10-14T17:43:56.367Z,0.88
2022-10-14T17:46:25.323Z,0.98
2022-10-14T17:48:57.958Z,1.00
2022-10-14T17:53:58.293Z,0.80
2022-10-14T17:58:54.350Z,0.80
2022-10-14T18:01:36.736Z,1.10
2022-10-14T18:04:08.854Z,1.08
2022-10-14T18:06:37.314Z,0.73
2022-10-14T18:09:06.795Z,0.80
2022-10-14T22:11:06.806Z,2.35
2022-10-14T22:13:34.879Z,2.28
2022-10-14T22:16:01.653Z,2.10
2022-10-14T22:18:28.522Z,2.05
2022-10-14T22:21:05.097Z,2.13
2022-10-14T22:23:33.108Z,2.53
2022-10-14T22:26:04.653Z,1.73
2022-10-14T22:28:32.085Z,1.58
2022-10-14T22:31:11.179Z,1.08
2022-10-14T22:33:39.388Z,1.38
2022-10-14T22:36:28.252Z,1.55
2022-10-14T22:38:56.420Z,1.40
2022-10-14T22:41:25.426Z,1.50
2022-10-14T22:43:57.233Z,1.52
2022-10-14T22:46:29.531Z,1.93
2022-10-14T22:48:57.826Z,1.88
2022-10-14T22:53:59.369Z,2.20
2022-10-14T22:56:27.794Z,2.00
2022-10-14T22:58:55.375Z,0.90
2022-10-14T23:01:23.638Z,2.42
2022-10-14T23:03:50.585Z,1.50
2022-10-14T23:06:17.409Z,1.15
2022-10-14T23:08:44.715Z,1.83
2022-10-14T23:11:19.575Z,2.10
2022-10-14T23:13:47.234Z,1.45
2022-10-14T23:16:16.806Z,1.63
2022-10-14T23:18:44.580Z,1.63
2022-10-14T23:21:19.013Z,1.77
2022-10-14T23:23:47.709Z,1.65
2022-10-14T23:26:17.430Z,1.30
2022-10-14T23:28:51.378Z,1.33
2022-10-14T23:31:20.486Z,2.70
2022-10-14T23:33:49.076Z,2.15
2022-10-14T23:36:16.652Z,2.13
2022-10-14T23:38:44.135Z,2.25
2022-10-14T23:41:12.634Z,2.22
2022-10-14T23:43:40.537Z,2.00
2022-10-14T23:46:07.732Z,1.60
2022-10-14T23:48:35.363Z,2.33
2022-10-14T23:51:02.225Z,1.63
2022-10-14T23:53:29.333Z,1.98
2022-10-14T23:55:56.722Z,1.77
2022-10-14T23:58:24.613Z,1.75
